CheckWX is a tool to help pilots better visualize weather data.  It is not intended as a substitute for an official pre-flight weather briefing.

20:49:11 UTC

ENLE METAR
Ekofisk Oil Platform
Ekofisk, Norway
Current

29 mins ago

ENLE 202020Z 17008KT CAVOK 10/05 Q1030 W08/S2
Observed
Apr-20 @ 20:20 UTC
Wind
  • 170° at 8 KTS
Visibility
10,000+ meters
Flight Rules
VFR
Cloud Levels
  • Clear skies
Temperature
10°C / 50°F
Dewpoint
C / 41°F
Humidity
71%
Altimeter
30.41" Hg
Pressure
1029.92 hPa
Previous

59 mins ago

ENLE 201950Z 17010KT CAVOK 10/05 Q1030 W08/S2
Observed
Apr-20 @ 19:50 UTC
Wind
  • 170° at 10 KTS
Visibility
10,000+ meters
Flight Rules
VFR
Cloud Levels
  • Clear skies
Temperature
10°C / 50°F
Dewpoint
C / 41°F
Humidity
71%
Altimeter
30.41" Hg
Pressure
1029.92 hPa
Previous

1 hour ago

ENLE 201920Z 17010KT CAVOK 10/05 Q1030 W08/S2
Observed
Apr-20 @ 19:20 UTC
Wind
  • 170° at 10 KTS
Visibility
10,000+ meters
Flight Rules
VFR
Cloud Levels
  • Clear skies
Temperature
10°C / 50°F
Dewpoint
C / 41°F
Humidity
71%
Altimeter
30.41" Hg
Pressure
1029.92 hPa